Time;durP1;ratioP1;P1;durP2;ratioP2;P2;SDS_P1;SDS_P2;PMS_P1;PMS_P2;Temp;Humidity;BMP_temperature;BMP_pressure;BME280_temperature;BME280_humidity;BME280_pressure;Samples;Min_cycle;Max_cycle;Signal;HPM_P1;HPM_P2
2022/03/09 00:01:56;;;;;;;12.60;7.72;;;-1.00;99.90;;;;;;5116129;28;20443;-94
2022/03/09 00:04:22;;;;;;;13.23;7.85;;;-1.10;99.90;;;;;;5116170;28;20386;-93
2022/03/09 00:06:48;;;;;;;12.07;7.13;;;-1.00;99.90;;;;;;5116358;28;20031;-93
2022/03/09 00:09:14;;;;;;;13.23;7.70;;;-1.10;99.90;;;;;;5116209;28;20019;-93
2022/03/09 00:11:41;;;;;;;11.70;7.43;;;-1.10;99.90;;;;;;5116283;28;20020;-93
2022/03/09 00:14:07;;;;;;;12.45;7.88;;;-1.00;99.90;;;;;;5116380;28;20114;-93
2022/03/09 00:16:32;;;;;;;13.88;7.90;;;-1.00;99.90;;;;;;5116041;28;20054;-94
2022/03/09 00:18:58;;;;;;;11.20;7.70;;;-1.10;99.90;;;;;;5116096;28;20027;-93
2022/03/09 00:21:24;;;;;;;13.38;8.15;;;-1.10;99.90;;;;;;5115741;28;20504;-93
2022/03/09 00:23:50;;;;;;;14.13;8.48;;;-1.10;99.90;;;;;;5116041;28;20461;-93
2022/03/09 00:26:16;;;;;;;12.63;7.95;;;-1.10;99.90;;;;;;5115756;28;20035;-93
2022/03/09 00:28:42;;;;;;;14.00;7.53;;;-1.20;99.90;;;;;;5115859;28;20020;-93
2022/03/09 00:31:07;;;;;;;11.98;7.60;;;-1.10;99.90;;;;;;5116801;28;20471;-93
2022/03/09 00:33:34;;;;;;;12.60;8.07;;;-1.10;99.90;;;;;;5116341;28;20111;-95
2022/03/09 00:36:00;;;;;;;13.38;7.72;;;-1.10;99.90;;;;;;5115663;28;20034;-93
2022/03/09 00:38:26;;;;;;;14.95;7.80;;;-1.10;99.90;;;;;;5115683;28;20024;-95
2022/03/09 00:40:51;;;;;;;13.52;8.25;;;-1.10;99.90;;;;;;5115879;28;20046;-93
2022/03/09 00:43:18;;;;;;;15.40;8.82;;;-1.10;99.90;;;;;;5115617;28;20115;-93
2022/03/09 00:45:44;;;;;;;13.48;8.30;;;-1.20;99.90;;;;;;5115356;28;20023;-93
2022/03/09 00:48:10;;;;;;;13.20;7.55;;;-1.20;99.90;;;;;;5115817;28;20114;-93
2022/03/09 00:50:35;;;;;;;14.15;8.32;;;-1.30;99.90;;;;;;5115450;28;20055;-93
2022/03/09 00:53:01;;;;;;;13.18;8.20;;;-1.30;99.90;;;;;;5115338;28;20027;-94
2022/03/09 00:55:27;;;;;;;14.02;8.27;;;-1.30;99.90;;;;;;5115439;28;20023;-93
2022/03/09 00:57:53;;;;;;;13.50;8.63;;;-1.30;99.90;;;;;;5115224;28;20057;-93
2022/03/09 01:00:19;;;;;;;14.68;8.68;;;-1.30;99.90;;;;;;5115034;28;20051;-93
2022/03/09 01:02:46;;;;;;;13.38;8.52;;;-1.20;99.90;;;;;;5116773;28;20149;-94
2022/03/09 01:05:13;;;;;;;17.77;9.05;;;-1.30;99.90;;;;;;5115019;28;20066;-94
2022/03/09 01:07:39;;;;;;;14.57;9.05;;;-1.30;99.90;;;;;;5114742;28;20019;-94
2022/03/09 01:10:06;;;;;;;19.52;11.32;;;-1.30;99.90;;;;;;5115021;28;20381;-94
2022/03/09 01:12:32;;;;;;;23.38;11.95;;;-1.30;99.90;;;;;;5116181;28;20035;-92
2022/03/09 01:14:58;;;;;;;18.50;10.52;;;-1.20;99.90;;;;;;5114876;28;20028;-93
2022/03/09 01:17:26;;;;;;;36.70;13.70;;;-1.20;99.90;;;;;;5114903;28;20084;-93
2022/03/09 01:19:52;;;;;;;39.67;13.98;;;-1.20;99.90;;;;;;5114960;28;20034;-93
2022/03/09 01:22:17;;;;;;;57.78;17.85;;;-1.20;99.90;;;;;;5115580;28;20132;-93
2022/03/09 01:24:43;;;;;;;33.45;12.68;;;-1.30;99.90;;;;;;5115908;28;20028;-94
2022/03/09 01:27:09;;;;;;;26.83;12.40;;;-1.30;99.90;;;;;;5114606;28;20385;-94
2022/03/09 01:29:35;;;;;;;24.45;11.95;;;-1.30;99.90;;;;;;5115873;28;20020;-94
2022/03/09 01:32:01;;;;;;;41.28;14.70;;;-1.20;99.90;;;;;;5114232;28;20028;-93
2022/03/09 01:34:26;;;;;;;23.73;11.88;;;-1.30;99.90;;;;;;5114881;28;20046;-93
2022/03/09 01:36:52;;;;;;;56.78;14.10;;;-1.20;99.90;;;;;;5114730;28;20367;-92
2022/03/09 01:39:18;;;;;;;40.10;15.13;;;-1.30;99.90;;;;;;5115943;28;20418;-93
2022/03/09 01:41:44;;;;;;;34.60;13.23;;;-1.30;99.90;;;;;;5114412;28;20059;-94
2022/03/09 01:44:12;;;;;;;23.55;11.10;;;-1.30;99.90;;;;;;5114431;28;20076;-94
2022/03/09 01:46:39;;;;;;;19.83;9.40;;;-1.30;99.90;;;;;;5114489;28;20151;-93
2022/03/09 01:49:06;;;;;;;24.90;11.90;;;-1.30;99.90;;;;;;5114332;28;20415;-93
2022/03/09 01:51:33;;;;;;;18.65;10.63;;;-1.40;99.90;;;;;;5114337;28;20485;-94
2022/03/09 01:53:59;;;;;;;21.23;10.95;;;-1.40;99.90;;;;;;5114278;28;20027;-94
2022/03/09 01:56:26;;;;;;;20.42;11.05;;;-1.50;99.90;;;;;;5114366;28;20111;-93
2022/03/09 01:58:52;;;;;;;18.23;9.27;;;-1.50;99.90;;;;;;5115321;28;20466;-93
2022/03/09 02:01:17;;;;;;;19.63;9.95;;;-1.50;99.90;;;;;;5115154;28;20028;-94
2022/03/09 02:03:43;;;;;;;20.77;10.57;;;-1.40;99.90;;;;;;5114021;28;20030;-94
2022/03/09 02:06:10;;;;;;;23.42;11.52;;;-1.40;99.90;;;;;;5113935;28;20062;-93
2022/03/09 02:11:21;;;;;;;30.05;15.27;;;-1.40;99.90;;;;;;5115290;28;20547;-94
2022/03/09 02:13:46;;;;;;;20.30;10.15;;;-1.50;99.90;;;;;;5114049;28;20023;-94
2022/03/09 02:16:16;;;;;;;20.90;11.32;;;-1.50;99.90;;;;;;5114103;28;20089;-94
2022/03/09 02:18:42;;;;;;;18.00;10.00;;;-1.40;99.90;;;;;;5113961;28;20024;-94
2022/03/09 02:21:11;;;;;;;17.05;9.57;;;-1.40;99.90;;;;;;5113747;28;20445;-93
2022/03/09 02:23:37;;;;;;;17.90;9.32;;;-1.50;99.90;;;;;;5113842;28;20019;-93
2022/03/09 02:26:02;;;;;;;18.48;10.40;;;-1.50;99.90;;;;;;5113873;28;20023;-93
2022/03/09 02:28:28;;;;;;;16.42;9.48;;;-1.50;99.90;;;;;;5113881;28;20026;-93
2022/03/09 02:30:55;;;;;;;15.40;9.32;;;-1.50;99.90;;;;;;5113258;28;20113;-93
2022/03/09 02:33:22;;;;;;;16.52;9.43;;;-1.50;99.90;;;;;;5113815;28;20020;-94
2022/03/09 02:35:52;;;;;;;13.77;8.73;;;-1.50;99.90;;;;;;5114924;28;20039;-93
2022/03/09 02:38:17;;;;;;;16.63;8.70;;;-1.50;99.90;;;;;;5113683;28;20034;-95
2022/03/09 02:40:43;;;;;;;17.33;9.32;;;-1.50;99.90;;;;;;5113685;28;20019;-93
2022/03/09 02:43:11;;;;;;;15.75;8.82;;;-1.50;99.90;;;;;;5116988;28;20023;-92
2022/03/09 02:45:37;;;;;;;15.98;8.68;;;-1.50;99.90;;;;;;5118788;28;20024;-92
2022/03/09 02:48:03;;;;;;;17.38;8.20;;;-1.60;99.90;;;;;;5117581;28;20031;-93
2022/03/09 02:50:29;;;;;;;16.20;9.02;;;-1.60;99.90;;;;;;5117161;28;20059;-92
2022/03/09 02:52:54;;;;;;;17.90;9.55;;;-1.60;99.90;;;;;;5118627;28;20058;-92
2022/03/09 02:55:20;;;;;;;21.08;9.75;;;-1.60;99.90;;;;;;5118688;28;20053;-94
2022/03/09 02:57:47;;;;;;;26.13;10.75;;;-1.60;99.90;;;;;;5118177;28;20028;-93
2022/03/09 03:00:14;;;;;;;15.18;8.63;;;-1.60;99.90;;;;;;5117571;28;20066;-94
2022/03/09 03:02:40;;;;;;;20.02;9.93;;;-1.60;99.90;;;;;;5117747;28;20019;-93
2022/03/09 03:05:08;;;;;;;17.40;9.35;;;-1.60;99.90;;;;;;5118416;28;20028;-94
2022/03/09 03:07:33;;;;;;;16.52;9.07;;;-1.50;99.90;;;;;;5117449;28;20072;-95
2022/03/09 03:09:59;;;;;;;17.17;9.27;;;-1.50;99.90;;;;;;5117162;28;20024;-93
2022/03/09 03:12:25;;;;;;;19.10;9.38;;;-1.60;99.90;;;;;;5116832;28;20023;-92
2022/03/09 03:14:51;;;;;;;15.32;8.40;;;-1.60;99.90;;;;;;5117167;28;20103;-93
2022/03/09 03:17:16;;;;;;;24.90;10.75;;;-1.60;99.90;;;;;;5117258;28;20043;-93
2022/03/09 03:19:42;;;;;;;16.65;8.95;;;-1.60;99.90;;;;;;5117315;28;20034;-93
2022/03/09 03:22:08;;;;;;;15.57;8.80;;;-1.60;99.90;;;;;;5117648;28;20079;-94
2022/03/09 03:24:34;;;;;;;19.95;9.88;;;-1.60;99.90;;;;;;5117234;28;20070;-94
2022/03/09 03:27:00;;;;;;;16.67;9.60;;;-1.60;99.90;;;;;;5119413;28;20023;-94
2022/03/09 03:29:26;;;;;;;16.38;9.07;;;-1.60;99.90;;;;;;5116955;28;20478;-94
2022/03/09 03:31:52;;;;;;;16.73;9.15;;;-1.70;99.90;;;;;;5116601;28;20058;-94
2022/03/09 03:34:19;;;;;;;15.77;9.15;;;-1.70;99.90;;;;;;5116811;28;20470;-94
2022/03/09 03:36:45;;;;;;;19.23;9.45;;;-1.80;99.90;;;;;;5117311;28;20039;-94
2022/03/09 03:39:14;;;;;;;19.45;9.40;;;-1.80;99.90;;;;;;5117662;28;20390;-95
2022/03/09 03:41:44;;;;;;;21.77;10.45;;;-1.90;99.90;;;;;;5116890;28;20030;-95
2022/03/09 03:44:13;;;;;;;19.83;9.52;;;-1.90;99.90;;;;;;5117869;27;20024;-94
2022/03/09 03:46:41;;;;;;;18.55;8.88;;;-1.90;99.90;;;;;;5100057;28;20085;-95
2022/03/09 03:49:07;;;;;;;19.08;9.20;;;-1.90;99.90;;;;;;5083412;28;20031;-95
2022/03/09 03:51:32;;;;;;;18.08;9.45;;;-1.90;99.90;;;;;;5116350;28;20031;-94
2022/03/09 03:53:58;;;;;;;18.17;9.38;;;-1.80;99.90;;;;;;5116243;28;20077;-95
2022/03/09 03:56:25;;;;;;;14.32;7.93;;;-1.70;99.90;;;;;;5116893;28;20046;-95
2022/03/09 03:58:50;;;;;;;15.50;9.00;;;-1.80;99.90;;;;;;5099563;28;20136;-95
2022/03/09 04:01:16;;;;;;;16.25;8.82;;;-1.70;99.90;;;;;;5115994;28;20027;-93
2022/03/09 04:03:42;;;;;;;16.42;8.98;;;-1.80;99.90;;;;;;5116281;28;20024;-93
2022/03/09 04:06:07;;;;;;;16.10;9.13;;;-1.80;99.90;;;;;;5116011;28;20509;-92
2022/03/09 04:08:33;;;;;;;16.58;9.10;;;-1.80;99.90;;;;;;5115781;28;20020;-93
2022/03/09 04:10:59;;;;;;;19.48;10.55;;;-1.90;99.90;;;;;;5115660;28;20046;-93
2022/03/09 04:13:25;;;;;;;21.67;9.07;;;-1.90;99.90;;;;;;5098851;28;20040;-93
2022/03/09 04:15:51;;;;;;;17.15;10.38;;;-1.90;99.90;;;;;;5115993;28;20024;-93
2022/03/09 04:18:16;;;;;;;17.73;9.27;;;-1.90;99.90;;;;;;5116238;28;20031;-93
2022/03/09 04:20:42;;;;;;;15.38;9.13;;;-1.90;99.90;;;;;;5114025;28;20547;-92
2022/03/09 04:23:09;;;;;;;17.55;10.07;;;-2.00;99.90;;;;;;5099837;28;20028;-89
2022/03/09 04:25:38;;;;;;;17.52;9.80;;;-2.00;99.90;;;;;;5095483;28;20016;-90
2022/03/09 04:28:05;;;;;;;18.33;9.93;;;-2.10;99.90;;;;;;5111608;28;20022;-90
2022/03/09 04:30:32;;;;;;;16.70;9.57;;;-2.10;99.90;;;;;;5115417;28;20450;-90
2022/03/09 04:33:00;;;;;;;17.00;8.95;;;-2.10;99.90;;;;;;5117299;28;20419;-89
2022/03/09 04:35:26;;;;;;;17.70;9.60;;;-2.00;99.90;;;;;;5098958;28;20028;-89
2022/03/09 04:37:51;;;;;;;18.45;10.10;;;-2.10;99.90;;;;;;5115297;28;20016;-90
2022/03/09 04:40:17;;;;;;;18.77;9.60;;;-2.10;99.90;;;;;;5115162;28;20110;-91
2022/03/09 04:42:43;;;;;;;18.00;9.70;;;-2.10;99.90;;;;;;5116560;28;20027;-91
2022/03/09 04:45:39;;;;;;;18.70;9.93;;;-2.10;99.90;;;;;;5098735;28;20027;-92
2022/03/09 04:48:05;;;;;;;22.08;10.05;;;-2.10;99.90;;;;;;5116235;28;20397;-92
2022/03/09 04:50:30;;;;;;;17.77;9.55;;;-2.10;99.90;;;;;;5080450;28;20024;-91
2022/03/09 04:52:56;;;;;;;16.02;9.27;;;-2.00;99.90;;;;;;5114563;28;20016;-91
2022/03/09 04:55:22;;;;;;;16.02;9.10;;;-2.10;99.90;;;;;;5115093;28;20028;-92
2022/03/09 04:57:51;;;;;;;17.73;9.27;;;-2.10;99.90;;;;;;5098291;28;20504;-91
2022/03/09 05:00:17;;;;;;;15.75;8.80;;;-2.00;99.90;;;;;;5115862;28;20023;-92
2022/03/09 05:02:43;;;;;;;16.67;9.40;;;-2.10;99.90;;;;;;5115282;28;20030;-93
2022/03/09 05:05:09;;;;;;;24.52;10.60;;;-2.00;99.90;;;;;;5107226;28;20551;-92
2022/03/09 05:07:42;;;;;;;26.67;11.90;;;-2.00;99.90;;;;;;5114987;28;20036;-91
2022/03/09 05:10:11;;;;;;;39.83;16.55;;;-2.00;99.90;;;;;;5110834;28;20051;-91
2022/03/09 05:12:37;;;;;;;53.97;18.60;;;-2.00;99.90;;;;;;5098024;28;20477;-91
2022/03/09 05:15:05;;;;;;;34.25;14.80;;;-2.10;99.90;;;;;;5114442;28;20073;-92
2022/03/09 05:17:32;;;;;;;105.47;37.72;;;-2.10;99.90;;;;;;5115699;28;20024;-92
2022/03/09 05:19:58;;;;;;;46.08;20.33;;;-2.00;99.90;;;;;;5091977;28;20036;-91
2022/03/09 05:22:24;;;;;;;54.00;22.58;;;-1.90;99.90;;;;;;5105002;27;20523;-92
2022/03/09 05:24:52;;;;;;;28.75;14.38;;;-1.90;99.90;;;;;;5105629;27;20023;-93
2022/03/09 05:27:17;;;;;;;28.42;13.48;;;-1.90;99.90;;;;;;5089124;27;20029;-90
2022/03/09 05:29:45;;;;;;;38.15;18.42;;;-1.80;99.90;;;;;;5116332;27;20078;-92
2022/03/09 05:32:10;;;;;;;30.75;14.95;;;-1.80;99.90;;;;;;5080856;28;20049;-93
2022/03/09 05:34:36;;;;;;;46.53;20.73;;;-1.80;99.90;;;;;;5115461;28;20032;-93
2022/03/09 05:37:02;;;;;;;30.73;15.10;;;-1.80;99.90;;;;;;5097015;28;20035;-90
2022/03/09 05:39:28;;;;;;;24.10;12.45;;;-1.70;99.90;;;;;;5094935;27;20119;-93
2022/03/09 05:41:54;;;;;;;24.83;13.18;;;-1.60;99.90;;;;;;5116738;27;20069;-93
2022/03/09 05:44:19;;;;;;;20.83;10.93;;;-1.70;99.90;;;;;;5099212;27;20028;-94
2022/03/09 05:46:45;;;;;;;20.27;11.10;;;-1.60;99.90;;;;;;5099438;27;20140;-93
2022/03/09 05:49:11;;;;;;;24.42;13.13;;;-1.60;99.90;;;;;;5116984;27;20102;-93
2022/03/09 05:51:39;;;;;;;21.52;11.13;;;-1.50;99.90;;;;;;5116623;27;20057;-93
2022/03/09 05:54:05;;;;;;;21.52;12.52;;;-1.50;99.90;;;;;;5116116;27;20473;-94
2022/03/09 05:56:30;;;;;;;22.92;13.40;;;-1.50;99.90;;;;;;5135035;27;20035;-91
2022/03/09 05:58:57;;;;;;;20.73;11.77;;;-1.50;99.90;;;;;;5135165;27;20076;-92
2022/03/09 06:01:23;;;;;;;20.45;11.32;;;-1.50;99.90;;;;;;5135502;27;20058;-92
2022/03/09 06:03:49;;;;;;;25.48;13.13;;;-1.50;99.90;;;;;;5117529;27;20019;-92
2022/03/09 06:06:16;;;;;;;27.23;12.82;;;-1.50;99.90;;;;;;5135676;27;20023;-92
2022/03/09 06:08:42;;;;;;;23.55;12.32;;;-1.40;99.90;;;;;;5135673;27;20034;-91
2022/03/09 06:11:10;;;;;;;22.05;11.82;;;-1.30;99.90;;;;;;5135712;27;20043;-90
2022/03/09 06:13:37;;;;;;;21.85;11.52;;;-1.40;99.90;;;;;;5101039;27;20118;-93
2022/03/09 06:16:03;;;;;;;22.88;11.93;;;-1.30;99.90;;;;;;5117727;27;20027;-94
2022/03/09 06:18:30;;;;;;;18.23;10.73;;;-1.20;99.90;;;;;;5117270;28;20113;-94
2022/03/09 06:20:56;;;;;;;24.30;12.80;;;-1.20;99.90;;;;;;5100114;28;20054;-92
2022/03/09 06:23:23;;;;;;;26.73;15.13;;;-1.20;99.90;;;;;;5117420;28;20122;-93
2022/03/09 06:25:49;;;;;;;29.48;15.32;;;-1.10;99.90;;;;;;5135361;28;20070;-93
2022/03/09 06:28:15;;;;;;;26.30;14.65;;;-1.10;99.90;;;;;;5117175;28;20071;-92
2022/03/09 06:30:41;;;;;;;30.15;15.15;;;-1.20;99.90;;;;;;5117381;28;20110;-93
2022/03/09 06:33:07;;;;;;;24.13;13.65;;;-1.20;99.90;;;;;;5117706;28;20107;-92
2022/03/09 06:35:33;;;;;;;31.70;15.90;;;-1.20;99.90;;;;;;5117107;28;20469;-92
2022/03/09 06:37:59;;;;;;;30.63;15.02;;;-1.20;99.90;;;;;;5117123;28;20092;-93
2022/03/09 06:40:25;;;;;;;32.33;16.67;;;-1.30;99.90;;;;;;5116707;28;20020;-91
2022/03/09 06:42:51;;;;;;;30.48;15.15;;;-1.20;99.90;;;;;;5099919;28;20024;-92
2022/03/09 06:45:17;;;;;;;27.92;14.63;;;-1.40;99.90;;;;;;5116839;28;20080;-92
2022/03/09 06:47:43;;;;;;;26.27;13.25;;;-1.30;99.90;;;;;;5099702;28;20023;-92
2022/03/09 06:50:11;;;;;;;24.23;12.27;;;-1.50;99.90;;;;;;5099804;28;20084;-92
2022/03/09 06:52:38;;;;;;;26.20;12.38;;;-1.50;99.90;;;;;;5116769;28;20143;-91
2022/03/09 06:55:08;;;;;;;29.35;13.68;;;-1.50;99.90;;;;;;5134144;28;20031;-93
2022/03/09 06:57:35;;;;;;;21.17;12.20;;;-1.40;99.90;;;;;;5100279;28;20492;-90
2022/03/09 07:00:01;;;;;;;26.13;12.95;;;-1.60;99.90;;;;;;5116547;28;20034;-92
2022/03/09 07:02:27;;;;;;;29.33;13.90;;;-1.70;99.90;;;;;;5134802;28;20525;-93
2022/03/09 07:04:52;;;;;;;19.80;11.10;;;-1.60;99.90;;;;;;5116307;28;20110;-91
2022/03/09 07:07:20;;;;;;;17.10;10.65;;;-1.60;99.90;;;;;;5099645;28;20035;-92
2022/03/09 07:09:47;;;;;;;28.58;13.52;;;-1.60;99.90;;;;;;5116603;28;20015;-94
2022/03/09 07:12:13;;;;;;;20.65;11.43;;;-1.50;99.90;;;;;;5116782;28;20160;-91
2022/03/09 07:14:39;;;;;;;30.48;13.93;;;-1.30;99.90;;;;;;5134322;28;20036;-93
2022/03/09 07:17:04;;;;;;;25.77;12.93;;;-1.20;99.90;;;;;;5116281;28;20374;-93
2022/03/09 07:19:31;;;;;;;20.52;11.60;;;-1.10;99.90;;;;;;5134737;28;20377;-90
2022/03/09 07:21:56;;;;;;;24.10;12.63;;;-1.20;99.90;;;;;;5099436;28;20043;-93
2022/03/09 07:24:22;;;;;;;20.08;11.80;;;-1.20;99.90;;;;;;5116583;28;20026;-93
2022/03/09 07:26:48;;;;;;;21.52;11.68;;;-1.20;99.90;;;;;;5116167;28;20022;-92
2022/03/09 07:29:17;;;;;;;20.20;12.00;;;-1.20;99.90;;;;;;5101385;27;20055;-91
2022/03/09 07:31:43;;;;;;;35.50;18.40;;;-1.00;99.90;;;;;;5120985;27;20035;-94
2022/03/09 07:34:09;;;;;;;17.00;10.38;;;-0.90;99.90;;;;;;5103343;27;20034;-91
2022/03/09 07:36:35;;;;;;;19.63;11.00;;;-0.70;99.90;;;;;;5103114;27;20118;-91
2022/03/09 07:39:01;;;;;;;20.35;11.68;;;-0.80;99.90;;;;;;5103332;27;20110;-92
2022/03/09 07:41:27;;;;;;;18.75;10.98;;;-0.80;99.90;;;;;;5137760;27;20050;-92
2022/03/09 07:43:52;;;;;;;18.98;10.70;;;-0.60;99.90;;;;;;5120048;27;20030;-90
2022/03/09 07:46:19;;;;;;;16.05;9.75;;;-0.60;99.90;;;;;;5119736;27;20030;-90
2022/03/09 07:48:45;;;;;;;15.52;9.23;;;-0.80;99.90;;;;;;5102845;27;20461;-90
2022/03/09 07:51:12;;;;;;;16.20;9.82;;;-0.70;99.90;;;;;;5119745;27;20035;-92
2022/03/09 07:53:42;;;;;;;20.40;11.20;;;-0.60;99.90;;;;;;5103205;27;20030;-95
2022/03/09 07:56:10;;;;;;;20.48;11.40;;;-0.50;99.90;;;;;;5137888;27;20031;-92
2022/03/09 07:58:37;;;;;;;52.10;22.48;;;-0.50;99.90;;;;;;5102869;27;20385;-91
2022/03/09 08:01:05;;;;;;;77.53;33.75;;;-0.50;99.90;;;;;;5102678;27;20027;-92
2022/03/09 08:03:32;;;;;;;60.78;22.20;;;-0.50;99.90;;;;;;5119628;27;20026;-94
2022/03/09 08:06:00;;;;;;;29.20;14.20;;;-0.40;99.90;;;;;;5120012;27;20022;-93
2022/03/09 08:08:27;;;;;;;35.80;14.75;;;-0.30;99.90;;;;;;5119985;27;20075;-95
2022/03/09 08:10:52;;;;;;;31.88;14.10;;;-0.30;99.90;;;;;;5119426;27;20035;-91
2022/03/09 08:13:19;;;;;;;106.85;37.53;;;-0.30;99.90;;;;;;5119343;27;20119;-93
2022/03/09 08:15:45;;;;;;;28.25;13.95;;;-0.30;99.90;;;;;;5119267;27;20031;-90
2022/03/09 08:18:11;;;;;;;21.13;11.38;;;-0.30;99.90;;;;;;5118830;27;20035;-90
2022/03/09 08:20:37;;;;;;;57.78;26.23;;;-0.20;99.90;;;;;;5118997;27;20035;-89
2022/03/09 08:23:04;;;;;;;19.05;10.77;;;-0.20;99.90;;;;;;5137143;27;20119;-90
2022/03/09 08:25:30;;;;;;;17.25;9.45;;;-0.10;99.90;;;;;;5085467;27;20065;-90
2022/03/09 08:27:57;;;;;;;16.67;9.98;;;-0.10;99.90;;;;;;5118995;27;20026;-92
2022/03/09 08:30:23;;;;;;;14.38;9.15;;;0.00;99.90;;;;;;5119108;27;20023;-91
2022/03/09 08:32:49;;;;;;;15.63;9.48;;;0.00;99.90;;;;;;5119056;27;20052;-92
2022/03/09 08:35:15;;;;;;;14.70;9.00;;;0.10;99.90;;;;;;5101997;27;20038;-91
2022/03/09 08:37:42;;;;;;;15.07;9.85;;;0.00;99.90;;;;;;5118638;27;20019;-92
2022/03/09 08:40:08;;;;;;;17.73;10.00;;;-0.10;99.90;;;;;;5118422;27;20019;-94
2022/03/09 08:42:34;;;;;;;13.18;9.13;;;-0.10;99.90;;;;;;5117735;27;20020;-91
2022/03/09 08:45:02;;;;;;;15.98;10.00;;;-0.30;99.90;;;;;;5118180;27;20026;-93
2022/03/09 08:47:28;;;;;;;19.08;10.27;;;-0.30;99.90;;;;;;5119143;27;20027;-93
2022/03/09 08:49:54;;;;;;;16.48;9.68;;;-0.10;99.90;;;;;;5118446;27;20034;-93
2022/03/09 08:52:20;;;;;;;18.55;10.07;;;0.00;99.90;;;;;;5118717;27;20503;-94
2022/03/09 08:54:46;;;;;;;18.23;10.52;;;0.00;99.90;;;;;;5118406;27;20027;-95
2022/03/09 08:57:13;;;;;;;15.82;9.05;;;0.10;99.90;;;;;;5117806;27;20023;-92
2022/03/09 08:59:39;;;;;;;14.50;9.20;;;0.20;99.90;;;;;;5102899;27;20488;-92
2022/03/09 09:02:06;;;;;;;15.65;9.35;;;0.20;99.90;;;;;;5117790;27;20023;-95
2022/03/09 09:04:31;;;;;;;19.10;10.80;;;0.20;99.90;;;;;;5101329;27;20423;-95
2022/03/09 09:06:57;;;;;;;18.13;11.15;;;0.10;99.90;;;;;;5118284;27;20023;-94
2022/03/09 09:09:23;;;;;;;21.85;14.23;;;0.10;99.90;;;;;;5118057;27;20117;-94
2022/03/09 09:11:54;;;;;;;18.45;10.27;;;0.10;99.90;;;;;;5118181;27;20039;-96
2022/03/09 09:14:22;;;;;;;14.50;8.88;;;0.10;99.90;;;;;;5136706;27;20477;-92
2022/03/09 09:16:48;;;;;;;15.23;9.50;;;0.20;99.90;;;;;;5136505;27;20027;-94
2022/03/09 09:19:15;;;;;;;22.40;10.88;;;0.30;99.90;;;;;;5117787;27;20427;-92
2022/03/09 09:21:42;;;;;;;13.55;9.07;;;0.30;99.90;;;;;;5117905;27;20051;-92
2022/03/09 09:24:09;;;;;;;14.32;10.18;;;0.40;99.90;;;;;;5118456;27;20031;-96
2022/03/09 09:26:34;;;;;;;17.13;11.32;;;0.40;99.90;;;;;;5118210;27;20455;-95
2022/03/09 09:29:01;;;;;;;15.20;9.18;;;0.40;99.90;;;;;;5117679;27;20026;-96
2022/03/09 09:31:28;;;;;;;18.45;11.82;;;0.50;99.90;;;;;;5100462;27;20481;-94
2022/03/09 09:33:54;;;;;;;19.25;11.38;;;0.30;99.90;;;;;;5117483;27;20027;-95
2022/03/09 09:36:21;;;;;;;15.02;9.73;;;0.50;99.90;;;;;;5137344;27;20031;-95
2022/03/09 09:38:52;;;;;;;21.23;12.48;;;0.80;99.90;;;;;;5137056;27;20026;-96
2022/03/09 09:41:24;;;;;;;15.35;9.77;;;0.90;99.90;;;;;;5118210;27;20495;-94
2022/03/09 09:43:50;;;;;;;16.42;10.30;;;0.80;99.90;;;;;;5118036;27;20020;-96
2022/03/09 09:46:17;;;;;;;17.17;10.75;;;0.80;99.90;;;;;;5117312;27;20457;-93
2022/03/09 09:48:46;;;;;;;16.65;10.40;;;0.80;99.90;;;;;;5116999;27;20026;-93
2022/03/09 09:51:14;;;;;;;19.58;11.15;;;0.70;99.90;;;;;;5136234;27;20059;-96
2022/03/09 09:53:44;;;;;;;17.67;9.98;;;0.80;99.90;;;;;;5101728;27;20035;-96
2022/03/09 09:56:13;;;;;;;18.73;10.18;;;0.90;99.90;;;;;;5118944;27;20027;-96
2022/03/09 09:58:44;;;;;;;15.90;9.15;;;0.80;99.90;;;;;;5117844;27;20031;-93
2022/03/09 10:01:14;;;;;;;15.02;9.50;;;0.70;99.90;;;;;;5117324;27;20034;-96
2022/03/09 10:03:40;;;;;;;;;;;0.80;99.90;;;;;;5117700;27;20019;-94
2022/03/09 10:06:06;;;;;;;18.45;10.30;;;0.80;99.90;;;;;;5117346;27;20448;-94
2022/03/09 10:08:32;;;;;;;21.98;11.55;;;0.80;99.90;;;;;;5117509;27;20038;-93
2022/03/09 10:11:01;;;;;;;15.05;8.85;;;0.90;99.90;;;;;;5100909;27;20079;-96
2022/03/09 10:13:31;;;;;;;16.17;9.87;;;1.00;99.90;;;;;;5135569;27;20027;-93
2022/03/09 10:16:20;;;;;;;19.20;11.03;;;1.00;99.90;;;;;;5135375;27;20030;-95
2022/03/09 10:18:56;;;;;;;23.17;12.10;;;1.10;99.90;;;;;;5117814;27;20537;-93
2022/03/09 10:21:26;;;;;;;16.10;9.85;;;1.20;99.90;;;;;;5135419;27;20047;-96
2022/03/09 10:24:09;;;;;;;17.50;10.17;;;1.20;99.90;;;;;;5100671;28;20027;-95
2022/03/09 10:26:35;;;;;;;26.83;11.88;;;1.20;99.90;;;;;;5117066;28;20023;-96
2022/03/09 10:29:12;;;;;;;14.50;8.60;;;1.20;99.90;;;;;;5117025;28;20020;-92
2022/03/09 10:31:46;;;;;;;11.88;7.97;;;1.00;99.90;;;;;;5135204;28;20085;-94
2022/03/09 10:34:16;;;;;;;17.13;8.77;;;1.10;99.90;;;;;;5116951;28;20024;-95
2022/03/09 10:36:57;;;;;;;16.30;8.30;;;1.10;99.90;;;;;;5117578;28;20027;-94
2022/03/09 10:39:26;;;;;;;13.63;8.73;;;1.10;99.80;;;;;;5117229;28;20019;-93
2022/03/09 10:41:52;;;;;;;12.10;7.85;;;1.00;99.60;;;;;;5100606;28;20054;-96
2022/03/09 10:44:18;;;;;;;18.88;9.30;;;1.00;99.50;;;;;;5118784;28;20462;-91
2022/03/09 10:46:52;;;;;;;12.95;7.18;;;1.10;99.10;;;;;;5117076;28;20031;-96
2022/03/09 10:49:25;;;;;;;10.15;6.18;;;1.20;99.30;;;;;;5135693;28;20023;-93
2022/03/09 10:51:53;;;;;;;11.48;7.07;;;1.20;98.30;;;;;;5101101;28;20118;-94
2022/03/09 10:54:24;;;;;;;8.88;6.43;;;1.20;98.90;;;;;;5099783;28;20126;-92
2022/03/09 10:57:01;;;;;;;9.77;6.53;;;1.20;98.80;;;;;;5116815;28;20021;-94
2022/03/09 10:59:27;;;;;;;15.32;7.50;;;1.20;99.30;;;;;;5099769;28;20031;-96
2022/03/09 11:02:11;;;;;;;12.27;7.60;;;1.10;99.00;;;;;;5116383;28;20023;-94
2022/03/09 11:04:38;;;;;;;14.43;7.55;;;1.00;98.70;;;;;;5137234;27;20387;-95
2022/03/09 11:07:05;;;;;;;12.48;8.35;;;1.00;98.90;;;;;;5120317;27;20094;-91
2022/03/09 11:09:31;;;;;;;15.73;8.93;;;0.90;98.60;;;;;;5139996;27;20023;-96
2022/03/09 11:11:57;;;;;;;29.02;11.45;;;0.80;99.00;;;;;;5103508;27;20030;-92
2022/03/09 11:14:26;;;;;;;19.25;9.18;;;0.90;99.20;;;;;;5120210;27;20023;-96
2022/03/09 11:16:53;;;;;;;21.85;9.25;;;1.20;99.30;;;;;;5104072;27;20030;-95
2022/03/09 11:19:20;;;;;;;18.42;8.82;;;1.30;99.00;;;;;;5120412;27;20022;-93
2022/03/09 11:21:47;;;;;;;33.28;14.00;;;1.20;98.50;;;;;;5119759;27;20043;-92
2022/03/09 11:24:15;;;;;;;15.90;8.82;;;1.10;97.90;;;;;;5102777;27;20023;-95
2022/03/09 11:26:53;;;;;;;14.48;8.05;;;1.10;97.20;;;;;;5119494;27;20024;-94
2022/03/09 11:29:34;;;;;;;17.13;7.57;;;1.00;97.40;;;;;;5138150;27;20023;-94
2022/03/09 11:32:00;;;;;;;8.18;5.32;;;1.10;96.70;;;;;;5103308;27;20031;-95
2022/03/09 11:34:45;;;;;;;16.38;8.93;;;1.10;95.70;;;;;;5119684;27;20031;-94
2022/03/09 11:37:12;;;;;;;8.52;5.70;;;0.90;96.10;;;;;;5138432;27;20084;-93
2022/03/09 11:39:45;;;;;;;12.05;7.53;;;0.90;96.90;;;;;;5124312;27;20118;-95
2022/03/09 11:42:21;;;;;;;12.40;6.35;;;1.10;97.80;;;;;;5118495;27;20056;-92
2022/03/09 11:44:51;;;;;;;6.95;5.13;;;1.40;96.70;;;;;;5138108;27;20023;-94
2022/03/09 11:47:18;;;;;;;13.93;7.78;;;1.60;97.00;;;;;;5102215;27;20035;-94
2022/03/09 11:49:49;;;;;;;14.48;8.25;;;1.70;96.70;;;;;;5118899;27;20028;-91
2022/03/09 11:52:20;;;;;;;11.50;6.80;;;1.50;96.50;;;;;;5119526;27;20031;-95
2022/03/09 11:55:01;;;;;;;16.58;9.07;;;1.70;96.20;;;;;;5119256;27;20464;-90
2022/03/09 11:57:48;;;;;;;8.93;6.32;;;1.60;94.90;;;;;;5115061;27;20019;-96
2022/03/09 12:00:27;;;;;;;9.38;5.85;;;1.60;95.10;;;;;;5138877;27;20424;-90
2022/03/09 12:02:57;;;;;;;12.77;7.05;;;1.40;95.00;;;;;;5118721;27;20023;-96
2022/03/09 12:05:36;;;;;;;59.88;25.42;;;1.30;95.40;;;;;;5137669;27;20054;-94
2022/03/09 12:08:10;;;;;;;32.58;16.00;;;1.40;95.40;;;;;;5119760;27;20019;-95
2022/03/09 12:10:53;;;;;;;32.50;15.45;;;1.70;95.40;;;;;;5118987;27;20477;-94
2022/03/09 12:13:27;;;;;;;13.98;8.07;;;1.80;94.00;;;;;;5136906;27;20140;-93
2022/03/09 12:16:00;;;;;;;15.35;7.22;;;1.90;93.80;;;;;;5118308;27;20412;-92
2022/03/09 12:18:55;;;;;;;27.55;11.95;;;1.90;93.70;;;;;;5117961;27;20516;-91
2022/03/09 12:21:27;;;;;;;14.25;7.47;;;1.70;93.50;;;;;;5104841;27;20339;-90
2022/03/09 12:24:05;;;;;;;41.78;16.85;;;1.40;94.80;;;;;;5136522;27;20103;-92
2022/03/09 12:26:46;;;;;;;16.20;7.78;;;1.30;95.20;;;;;;5118607;27;20054;-91
2022/03/09 12:29:30;;;;;;;11.95;5.75;;;1.10;95.40;;;;;;5118403;27;20480;-90
2022/03/09 12:32:07;;;;;;;9.93;6.82;;;1.30;95.60;;;;;;5119222;27;20031;-92
2022/03/09 12:34:43;;;;;;;7.63;5.18;;;1.50;95.70;;;;;;5136555;27;20031;-90
2022/03/09 12:37:15;;;;;;;15.65;6.47;;;1.70;94.50;;;;;;5118846;27;20029;-92
2022/03/09 12:39:58;;;;;;;9.85;5.45;;;1.60;97.60;;;;;;5118584;27;20023;-93
2022/03/09 12:42:24;;;;;;;9.68;6.50;;;1.50;99.50;;;;;;5117900;27;20038;-92